• Join FlightAware (Why Join?)
  • Login
  • US Flag 
07:31PM EDT


 

Airport Tracker/Info


-or-


 

Live Flight TrackerFlight Track Log ✈ VH-YEN ✈ 05-Jul-2013 ✈ YSCN / CDU - YBSU / MCY

Flight Track Log - Related Links

Times and Time Zones

All times are in EDT time to prevent confusion due to time zone crossing. See the VH-YEN flight status page for this flight to view local times or setup timezone preferences in your user account.

Time Position Orientation Groundspeed Altitude Reporting Facility
EDT Latitude Longitude Course Direction KTS MPH feet Rate Location/Type
09:40PM -34.0473 150.6645 306° West 91 105 1,000  Level Aus ATC (RADAR)
09:41PM -34.0353 150.6447 306° West 87 100 1,800 480 Climbing Aus ATC (RADAR)
09:42PM -34.0011 150.6603 21° North 121 139 2,100 240 Climbing Aus ATC (RADAR)
09:42PM -33.9873 150.6735 38° Northeast 125 144 2,200 420 Climbing Aus ATC (RADAR)
09:43PM -33.9735 150.6917 48° Northeast 128 147 2,600 600 Climbing Aus ATC (RADAR)
09:44PM -33.9574 150.7123 47° Northeast 126 145 3,000 300 Climbing Aus ATC (RADAR)
09:44PM -33.9404 150.7227 27° Northeast 123 142 3,000 300 Level Aus ATC (RADAR)
09:45PM -33.9222 150.7316 22° Northeast 122 140 3,400 720 Climbing Aus ATC (RADAR)
09:45PM -33.9031 150.7339 North 105 121 3,900 660 Climbing Aus ATC (RADAR)
09:47PM -33.8741 150.7273 349° North 101 116 4,600 420 Climbing Aus ATC (RADAR)
09:47PM -33.8514 150.7340 14° North 126 145 4,700 360 Climbing Aus ATC (RADAR)
09:48PM -33.8300 150.7390 11° North 133 153 5,100 180 Climbing Aus ATC (RADAR)
09:49PM -33.7995 150.7435 North 147 169 5,000 -60 Descending Aus ATC (RADAR)
09:50PM -33.7584 150.7471 North 150 173 5,000  Level Aus ATC (RADAR)
09:50PM -33.7288 150.7630 24° Northeast 157 181 5,000  Level Aus ATC (RADAR)
09:51PM -33.7003 150.7837 31° Northeast 156 180 5,000 300 Level Aus ATC (RADAR)
09:52PM -33.6647 150.7961 16° North 129 148 5,600 600 Climbing Aus ATC (RADAR)
09:53PM -33.6465 150.8035 19° North 118 136 6,000 600 Climbing Aus ATC (RADAR)
09:53PM -33.6263 150.8065 North 100 115 6,400 420 Climbing Aus ATC (RADAR)
09:54PM -33.6001 150.8107 North 101 116 6,700 360 Climbing Aus ATC (RADAR)
09:55PM -33.5768 150.8301 35° Northeast 130 150 7,100 540 Climbing Aus ATC (RADAR)
09:56PM -33.5657 150.8544 61° Northeast 141 162 7,500 600 Climbing Aus ATC (RADAR)
09:57PM -33.5461 150.8788 46° Northeast 106 122 8,000 420 Climbing Aus ATC (RADAR)
09:58PM -33.5233 150.8849 13° North 86 99 8,400 420 Climbing Aus ATC (RADAR)
09:58PM -33.5058 150.8933 22° Northeast 95 109 8,800 480 Climbing Aus ATC (RADAR)
09:59PM -33.4926 150.9059 39° Northeast 103 119 9,100 180 Climbing Aus ATC (RADAR)
10:00PM -33.4771 150.9291 51° Northeast 132 152 9,100  Level Aus ATC (RADAR)
10:01PM -33.4453 150.9509 30° Northeast 134 154 9,100  Level Aus ATC (RADAR)
10:02PM -33.4065 150.9742 27° Northeast 147 169 9,100  Level Aus ATC (RADAR)
10:03PM -33.3723 150.9964 29° Northeast 136 157 9,200  Climbing Aus ATC (RADAR)
10:03PM -33.3495 151.0113 29° Northeast 141 162 9,100 -120 Descending Aus ATC (RADAR)
10:04PM -33.3286 151.0246 28° Northeast 147 169 9,100  Level Aus ATC (RADAR)
10:05PM -33.3080 151.0443 39° Northeast 161 185 9,100  Level Aus ATC (RADAR)
10:05PM -33.2843 151.0678 40° Northeast 161 185 9,100  Level Aus ATC (RADAR)
10:06PM -33.2651 151.0875 41° Northeast 160 184 9,100  Level Aus ATC (RADAR)
10:07PM -33.2302 151.1210 39° Northeast 159 183 9,100  Level Aus ATC (RADAR)
10:08PM -33.2041 151.1449 37° Northeast 157 181 9,100 60 Level Aus ATC (RADAR)
10:08PM -33.1764 151.1682 35° Northeast 158 182 9,200 120 Climbing Aus ATC (RADAR)
10:09PM -33.1429 151.2025 41° Northeast 164 189 9,400 360 Climbing Aus ATC (RADAR)
10:10PM -33.1224 151.2394 56° Northeast 155 178 9,900 420 Climbing Aus ATC (RADAR)
10:11PM -33.1087 151.2636 56° Northeast 143 165 10,000 60 Climbing Aus ATC (RADAR)
10:11PM -33.0898 151.2926 52° Northeast 148 170 10,000  Level Aus ATC (RADAR)
10:12PM -33.0677 151.3147 40° Northeast 151 174 10,000  Level Aus ATC (RADAR)
10:13PM -33.0473 151.3287 30° Northeast 145 167 10,000  Level Aus ATC (RADAR)
10:13PM -33.0227 151.3326 North 115 132 10,000 -60 Level Aus ATC (RADAR)
10:14PM -32.9948 151.3190 338° Northwest 107 123 9,900 240 Descending Aus ATC (RADAR)
10:15PM -33.0065 151.3048 225° Southwest 98 113 10,500 600 Climbing Aus ATC (RADAR)
10:16PM -33.0299 151.3158 158° South 141 162 10,700 -120 Climbing Aus ATC (RADAR)
10:17PM -33.0807 151.3437 155° Southeast 172 198 10,300 -360 Descending Aus ATC (RADAR)
10:18PM -33.1056 151.3460 176° South 160 184 10,100 -120 Descending Aus ATC (RADAR)
10:18PM -33.1222 151.3173 235° Southwest 105 121 10,200 -120 Climbing Aus ATC (RADAR)
10:19PM -33.1241 151.2982 263° West 97 112 10,000 -240 Descending Aus ATC (RADAR)
10:20PM -33.1197 151.2824 289° West 97 112 10,000 -120 Level Aus ATC (RADAR)
10:20PM -33.1250 151.2623 253° West 108 124 9,900 -120 Descending Aus ATC (RADAR)
10:21PM -33.1415 151.2387 230° Southwest 110 127 9,900 -360 Level Aus ATC (RADAR)
10:22PM -33.1712 151.2199 208° Southwest 151 174 9,300 -720 Descending Aus ATC (RADAR)